createdAt,value
2022-11-18T00:02:19.178Z,23.77
2022-11-18T00:04:47.189Z,28.23
2022-11-18T00:07:15.076Z,24.57
2022-11-18T00:09:42.909Z,29.77
2022-11-18T00:12:28.459Z,28.83
2022-11-18T00:14:56.329Z,26.87
2022-11-18T00:17:25.503Z,29.77
2022-11-18T00:19:53.481Z,26.87
2022-11-18T00:22:25.519Z,29.67
2022-11-18T00:24:56.376Z,29.30
2022-11-18T00:27:24.160Z,26.93
2022-11-18T00:29:52.092Z,31.00
2022-11-18T00:32:20.010Z,26.63
2022-11-18T00:34:49.194Z,28.43
2022-11-18T00:37:17.003Z,28.00
2022-11-18T00:39:44.864Z,27.57
2022-11-18T00:42:30.009Z,26.70
2022-11-18T00:44:57.992Z,26.53
2022-11-18T00:47:25.770Z,28.60
2022-11-18T00:49:55.233Z,29.73
2022-11-18T00:52:23.117Z,27.50
2022-11-18T00:54:50.983Z,29.27
2022-11-18T00:57:18.799Z,28.60
2022-11-18T00:59:46.657Z,27.93
2022-11-18T01:02:14.450Z,26.60
2022-11-18T01:04:42.367Z,30.07
2022-11-18T01:07:11.605Z,29.37
2022-11-18T01:09:39.673Z,29.53
2022-11-18T01:12:25.324Z,29.13
2022-11-18T01:14:53.212Z,28.20
2022-11-18T01:17:21.153Z,28.53
2022-11-18T01:19:49.079Z,26.10
2022-11-18T01:22:18.251Z,30.87
2022-11-18T01:24:46.137Z,26.37
2022-11-18T01:27:13.989Z,31.23
2022-11-18T01:29:41.884Z,29.07
2022-11-18T01:32:24.504Z,28.73
2022-11-18T01:34:53.498Z,27.30
2022-11-18T01:37:22.844Z,30.83
2022-11-18T01:39:50.769Z,27.27
2022-11-18T01:42:19.217Z,26.10
2022-11-18T01:45:16.650Z,26.63
2022-11-18T01:47:50.413Z,25.73
2022-11-18T01:50:20.836Z,27.43
2022-11-18T01:52:52.042Z,26.13
2022-11-18T01:55:25.395Z,25.97
2022-11-18T01:57:59.387Z,26.70
2022-11-18T02:00:27.287Z,25.50
2022-11-18T02:02:55.325Z,26.27
2022-11-18T02:05:24.751Z,24.70
2022-11-18T02:07:53.959Z,23.83
2022-11-18T02:10:25.080Z,23.27
2022-11-18T02:12:54.544Z,24.70
2022-11-18T02:15:28.796Z,26.23
2022-11-18T02:18:04.003Z,26.37
2022-11-18T02:20:34.051Z,26.83
2022-11-18T02:23:29.489Z,26.07
2022-11-18T02:26:12.287Z,19.50
2022-11-18T02:28:52.546Z,25.60
2022-11-18T02:31:28.046Z,22.70
2022-11-18T02:34:06.781Z,24.30
2022-11-18T02:36:42.608Z,23.80
2022-11-18T02:39:17.952Z,25.23
2022-11-18T02:41:48.484Z,26.70
2022-11-18T02:44:20.016Z,26.53
2022-11-18T02:46:53.076Z,24.47
2022-11-18T02:49:26.730Z,24.87
2022-11-18T02:51:56.376Z,24.70
2022-11-18T02:54:26.940Z,26.53
2022-11-18T02:56:56.127Z,27.67
2022-11-18T02:59:25.288Z,28.43
2022-11-18T03:01:53.279Z,25.87
2022-11-18T03:04:23.939Z,26.23
2022-11-18T03:07:08.044Z,26.47
2022-11-18T03:09:39.318Z,24.50
2022-11-18T03:12:16.280Z,25.43
2022-11-18T03:14:54.787Z,25.30
2022-11-18T03:17:30.291Z,26.43
2022-11-18T03:20:08.617Z,25.37
2022-11-18T03:22:41.636Z,25.67
2022-11-18T03:25:12.872Z,30.33
2022-11-18T03:27:47.136Z,26.03
2022-11-18T03:30:21.373Z,26.00
2022-11-18T03:32:54.805Z,28.13
2022-11-18T03:35:25.900Z,27.60
2022-11-18T03:38:00.483Z,31.07
2022-11-18T03:40:32.316Z,29.53
2022-11-18T03:43:05.762Z,30.63
2022-11-18T03:45:38.912Z,31.23
2022-11-18T03:48:12.157Z,30.43
2022-11-18T03:50:44.827Z,30.43
2022-11-18T03:53:14.044Z,25.10
2022-11-18T03:55:44.543Z,30.60
2022-11-18T03:58:17.833Z,30.90
2022-11-18T04:00:51.316Z,32.37
2022-11-18T04:03:19.472Z,33.23
2022-11-18T04:05:50.728Z,32.00
2022-11-18T04:08:24.446Z,34.53
2022-11-18T04:11:00.644Z,32.00
2022-11-18T04:13:31.597Z,31.23
2022-11-18T04:16:01.467Z,29.87
2022-11-18T04:18:29.680Z,30.27
2022-11-18T04:20:57.480Z,29.67
2022-11-18T04:23:25.353Z,27.87
2022-11-18T04:25:53.184Z,31.17
2022-11-18T04:28:21.094Z,22.80
2022-11-18T04:30:50.480Z,32.07
2022-11-18T04:33:19.796Z,32.10
2022-11-18T04:35:48.041Z,32.40
2022-11-18T04:38:21.663Z,32.60
2022-11-18T04:40:49.946Z,28.90
2022-11-18T04:43:17.793Z,31.73
2022-11-18T04:45:45.639Z,29.10
2022-11-18T04:48:13.524Z,32.90
2022-11-18T04:50:42.707Z,31.40
2022-11-18T04:53:10.556Z,30.70
2022-11-18T04:55:38.662Z,31.17
2022-11-18T04:58:06.546Z,29.57
2022-11-18T05:00:34.331Z,29.83
2022-11-18T05:03:02.198Z,29.03
2022-11-18T05:05:30.137Z,31.07
2022-11-18T05:07:59.397Z,30.93
2022-11-18T05:10:27.233Z,30.77
2022-11-18T05:12:54.201Z,25.83
2022-11-18T05:15:23.889Z,29.53
2022-11-18T05:17:51.955Z,29.13
2022-11-18T05:20:19.760Z,31.23
2022-11-18T05:22:47.595Z,33.57
2022-11-18T05:25:16.881Z,30.23
2022-11-18T05:27:44.749Z,34.23
2022-11-18T05:30:13.948Z,31.33
2022-11-18T05:32:41.824Z,29.73
2022-11-18T05:35:10.336Z,31.90
2022-11-18T05:37:38.223Z,30.37
2022-11-18T05:40:07.529Z,33.13
2022-11-18T05:42:54.539Z,29.33
2022-11-18T05:45:22.389Z,28.00
2022-11-18T05:48:03.933Z,27.63
2022-11-18T05:50:32.832Z,23.67
2022-11-18T05:53:00.774Z,29.63
2022-11-18T05:55:32.073Z,27.60
2022-11-18T05:58:01.299Z,28.23
2022-11-18T06:00:30.258Z,32.10
2022-11-18T06:02:59.890Z,24.63
2022-11-18T06:05:27.981Z,30.13
2022-11-18T06:07:57.535Z,29.33
2022-11-18T06:10:29.955Z,31.27
2022-11-18T06:13:03.993Z,27.23
2022-11-18T06:15:35.543Z,28.50
2022-11-18T06:18:07.625Z,27.67
2022-11-18T06:20:38.940Z,30.10
2022-11-18T06:23:06.862Z,30.30
2022-11-18T06:25:35.027Z,33.67
2022-11-18T06:28:04.438Z,32.67
2022-11-18T06:30:32.348Z,36.67
2022-11-18T06:33:00.193Z,35.50
2022-11-18T06:35:28.106Z,34.37
2022-11-18T06:37:55.963Z,36.63
2022-11-18T06:40:23.865Z,35.87
2022-11-18T06:43:09.005Z,34.20
2022-11-18T06:45:38.229Z,35.20
2022-11-18T06:48:05.969Z,35.80
2022-11-18T06:50:33.811Z,36.67
2022-11-18T06:53:02.179Z,38.63
2022-11-18T06:55:29.965Z,37.00
2022-11-18T06:57:58.065Z,35.00
2022-11-18T07:00:26.068Z,34.97
2022-11-18T07:02:55.217Z,38.40
2022-11-18T07:05:23.082Z,42.80
2022-11-18T07:07:50.958Z,37.30
2022-11-18T07:10:18.813Z,37.47
2022-11-18T07:12:46.781Z,35.97
2022-11-18T07:15:14.591Z,37.53
2022-11-18T07:17:42.459Z,35.50
2022-11-18T07:20:12.547Z,41.43
2022-11-18T07:22:40.385Z,34.27
2022-11-18T07:25:08.711Z,34.63
2022-11-18T07:27:36.619Z,34.63
2022-11-18T07:30:05.132Z,34.77
2022-11-18T07:32:34.086Z,35.20
2022-11-18T07:35:01.891Z,29.67
2022-11-18T07:37:31.067Z,29.13
2022-11-18T07:39:59.850Z,30.07
2022-11-18T07:42:27.751Z,27.43
2022-11-18T07:44:55.602Z,26.30
2022-11-18T07:47:23.416Z,25.47
2022-11-18T07:49:51.296Z,24.27
2022-11-18T07:52:19.187Z,25.13
2022-11-18T07:54:48.594Z,26.70
2022-11-18T07:57:16.443Z,24.37
2022-11-18T07:59:44.305Z,22.27
2022-11-18T08:02:12.603Z,17.93
2022-11-18T08:04:40.656Z,22.13
2022-11-18T08:07:10.800Z,20.90
2022-11-18T08:09:38.690Z,20.90
2022-11-18T08:12:08.498Z,21.37
2022-11-18T08:14:36.390Z,17.63
2022-11-18T08:17:04.356Z,20.20
2022-11-18T08:19:32.224Z,17.67
2022-11-18T08:22:00.034Z,18.07
2022-11-18T08:24:28.010Z,19.17
2022-11-18T08:26:55.852Z,18.20
2022-11-18T08:29:25.846Z,19.60
2022-11-18T08:31:54.574Z,18.23
2022-11-18T08:34:22.434Z,18.70
2022-11-18T08:36:50.255Z,18.20
2022-11-18T08:39:18.272Z,16.60
2022-11-18T08:41:47.145Z,16.57
2022-11-18T08:44:16.627Z,16.10
2022-11-18T08:46:46.643Z,16.73
2022-11-18T08:49:14.525Z,15.70
2022-11-18T08:51:42.319Z,14.83
2022-11-18T08:54:10.341Z,15.43
2022-11-18T08:56:39.040Z,16.70
2022-11-18T08:59:07.095Z,14.27
2022-11-18T09:01:35.022Z,15.67
2022-11-18T09:04:04.381Z,15.57
2022-11-18T09:06:32.285Z,15.03
2022-11-18T09:09:05.966Z,14.40
2022-11-18T09:11:35.164Z,12.43
2022-11-18T09:15:06.442Z,13.20
2022-11-18T09:16:51.150Z,12.47
2022-11-18T09:22:09.258Z,13.07
2022-11-18T09:24:38.066Z,15.37
2022-11-18T09:27:10.752Z,16.10
2022-11-18T09:29:40.200Z,14.77
2022-11-18T09:32:07.995Z,11.37
2022-11-18T09:34:37.195Z,11.00
2022-11-18T09:37:06.373Z,12.53
2022-11-18T09:39:36.752Z,13.57
2022-11-18T09:42:26.979Z,14.63
2022-11-18T09:45:23.546Z,10.97
2022-11-18T09:47:52.578Z,13.10
2022-11-18T09:53:19.078Z,10.67
2022-11-18T09:55:48.564Z,11.17
2022-11-18T09:58:19.647Z,11.67
2022-11-18T10:00:47.495Z,10.80
2022-11-18T10:03:21.894Z,10.97
2022-11-18T10:05:56.713Z,13.03
2022-11-18T10:08:29.231Z,11.80
2022-11-18T10:11:04.585Z,11.17
2022-11-18T10:13:48.233Z,9.13
2022-11-18T10:16:28.708Z,10.87
2022-11-18T10:19:04.807Z,11.47
2022-11-18T10:21:47.789Z,11.13
2022-11-18T10:24:20.739Z,9.63
2022-11-18T10:26:54.903Z,11.50
2022-11-18T10:29:23.665Z,12.20
2022-11-18T10:31:59.672Z,11.43
2022-11-18T10:34:32.289Z,11.50
2022-11-18T10:37:03.471Z,12.33
2022-11-18T10:39:31.525Z,12.77
2022-11-18T10:42:03.933Z,11.17
2022-11-18T10:44:41.031Z,11.87
2022-11-18T10:47:27.787Z,11.20
2022-11-18T10:49:57.357Z,11.53
2022-11-18T10:52:27.424Z,11.87
2022-11-18T10:55:22.215Z,11.07
2022-11-18T10:57:53.459Z,11.53
2022-11-18T11:00:42.345Z,11.90
2022-11-18T11:03:25.297Z,10.40
2022-11-18T11:06:44.067Z,11.13
2022-11-18T11:09:27.166Z,10.87
2022-11-18T11:12:01.432Z,10.53
2022-11-18T11:14:33.563Z,9.47
2022-11-18T11:17:07.957Z,9.63
2022-11-18T11:19:45.494Z,8.60
2022-11-18T11:22:14.026Z,8.20
2022-11-18T11:24:43.425Z,9.30
2022-11-18T11:30:24.672Z,7.23
2022-11-18T11:33:16.471Z,7.40
2022-11-18T11:35:53.905Z,8.27
2022-11-18T11:38:33.862Z,6.87
2022-11-18T11:41:11.237Z,5.97
2022-11-18T11:43:53.416Z,7.37
2022-11-18T11:46:29.935Z,6.00
2022-11-18T11:49:02.805Z,5.97
2022-11-18T11:51:37.748Z,6.90
2022-11-18T11:54:26.980Z,6.27
2022-11-18T11:56:59.910Z,6.10
2022-11-18T11:59:33.253Z,5.47
2022-11-18T12:02:23.470Z,6.00
2022-11-18T12:04:56.251Z,5.63
2022-11-18T12:07:27.470Z,7.17
2022-11-18T12:10:10.203Z,4.57
2022-11-18T12:12:50.283Z,4.77
2022-11-18T12:15:26.956Z,4.47
2022-11-18T12:18:01.756Z,5.90
2022-11-18T12:20:43.643Z,6.73
2022-11-18T12:23:17.590Z,4.83
2022-11-18T12:26:00.940Z,6.00
2022-11-18T12:28:33.538Z,6.33
2022-11-18T12:31:36.298Z,8.87
2022-11-18T12:34:21.278Z,4.30
2022-11-18T12:36:49.277Z,6.57
2022-11-18T12:39:56.911Z,6.87
2022-11-18T12:43:03.475Z,4.93
2022-11-18T12:46:00.466Z,5.90
2022-11-18T12:48:31.103Z,4.53
2022-11-18T12:51:00.607Z,7.07
2022-11-18T12:53:38.874Z,5.20
2022-11-18T12:56:23.377Z,5.07
2022-11-18T12:58:52.993Z,5.13
2022-11-18T13:01:24.393Z,4.63
2022-11-18T13:03:53.377Z,4.17
2022-11-18T13:06:26.691Z,6.17
2022-11-18T13:08:57.510Z,3.87
2022-11-18T13:11:45.616Z,4.43
2022-11-18T13:14:35.741Z,4.53
2022-11-18T13:17:47.662Z,4.93
2022-11-18T13:20:24.105Z,3.47
2022-11-18T13:23:10.262Z,4.70
2022-11-18T13:25:38.551Z,4.33
2022-11-18T13:28:14.928Z,4.03
2022-11-18T13:30:49.106Z,5.00
2022-11-18T13:33:18.340Z,4.80
2022-11-18T13:35:46.257Z,5.53
2022-11-18T13:38:27.656Z,4.73
2022-11-18T13:41:05.102Z,3.27
2022-11-18T13:43:33.781Z,2.83
2022-11-18T13:46:05.104Z,3.40
2022-11-18T13:48:37.317Z,3.63
2022-11-18T13:51:05.602Z,3.00
2022-11-18T13:53:37.159Z,3.53
2022-11-18T13:56:07.079Z,2.57
2022-11-18T13:59:10.238Z,4.73
2022-11-18T14:01:29.383Z,2.83
2022-11-18T14:04:00.367Z,2.83
2022-11-18T14:06:29.782Z,3.27
2022-11-18T14:09:16.586Z,2.83
2022-11-18T14:11:47.057Z,3.03
2022-11-18T14:14:29.723Z,2.10
2022-11-18T14:17:06.348Z,3.77
2022-11-18T14:19:42.658Z,3.10
2022-11-18T14:22:15.985Z,2.13
2022-11-18T14:24:45.091Z,1.97
2022-11-18T14:27:36.278Z,2.00
2022-11-18T14:30:19.972Z,2.70
2022-11-18T14:33:12.775Z,2.63
2022-11-18T14:35:44.063Z,3.20
2022-11-18T14:41:07.189Z,2.83
2022-11-18T14:43:35.114Z,3.57
2022-11-18T14:46:05.732Z,3.33
2022-11-18T14:48:33.855Z,2.33
2022-11-18T14:51:03.072Z,3.97
2022-11-18T14:53:31.048Z,3.70
2022-11-18T14:56:00.205Z,3.17
2022-11-18T14:58:28.072Z,2.60
2022-11-18T15:00:55.921Z,3.70
2022-11-18T15:03:24.078Z,2.93
2022-11-18T15:05:51.969Z,3.20
2022-11-18T15:08:21.155Z,7.83
2022-11-18T15:10:48.974Z,3.50
2022-11-18T15:13:16.830Z,3.70
2022-11-18T15:15:44.583Z,4.00
2022-11-18T15:18:12.472Z,2.70
2022-11-18T15:20:40.271Z,4.97
2022-11-18T15:23:08.138Z,3.60
2022-11-18T15:25:37.338Z,4.20
2022-11-18T15:28:05.456Z,2.87
2022-11-18T15:30:33.237Z,3.40
2022-11-18T15:33:01.209Z,3.40
2022-11-18T15:35:29.027Z,3.00
2022-11-18T15:37:56.851Z,6.63
2022-11-18T15:40:24.893Z,2.53
2022-11-18T15:42:54.187Z,2.97
2022-11-18T15:45:22.017Z,2.23
2022-11-18T15:47:52.172Z,3.47
2022-11-18T15:50:20.129Z,3.17
2022-11-18T15:52:47.913Z,4.13
2022-11-18T15:55:15.893Z,4.93
2022-11-18T15:57:43.683Z,2.93
2022-11-18T16:00:14.491Z,4.20
2022-11-18T16:02:45.244Z,4.97
2022-11-18T16:05:13.373Z,2.67
2022-11-18T16:07:41.262Z,5.13
2022-11-18T16:10:28.679Z,4.33
2022-11-18T16:12:56.668Z,3.20
2022-11-18T16:15:43.129Z,4.33
2022-11-18T16:18:11.312Z,3.50
2022-11-18T16:20:39.150Z,3.87
2022-11-18T16:23:07.110Z,4.50
2022-11-18T16:25:34.920Z,3.70
2022-11-18T16:28:07.410Z,4.47
2022-11-18T16:30:54.904Z,4.80
2022-11-18T16:33:22.854Z,4.57
2022-11-18T16:35:50.726Z,5.13
2022-11-18T16:38:18.631Z,4.43
2022-11-18T16:40:46.532Z,6.63
2022-11-18T16:43:14.379Z,5.30
2022-11-18T16:45:51.463Z,6.33
2022-11-18T16:48:19.427Z,5.97
2022-11-18T16:50:52.547Z,6.40
2022-11-18T16:53:20.374Z,7.70
2022-11-18T16:55:48.174Z,7.93
2022-11-18T16:58:16.162Z,7.47
2022-11-18T17:01:16.389Z,8.00
2022-11-18T17:03:33.126Z,7.27
2022-11-18T17:06:01.412Z,7.63
2022-11-18T17:08:29.286Z,6.07
2022-11-18T17:10:57.128Z,6.57
2022-11-18T17:13:24.973Z,4.50
2022-11-18T17:15:54.137Z,5.40
2022-11-18T17:18:21.962Z,7.43
2022-11-18T17:20:49.752Z,5.50
2022-11-18T17:23:17.593Z,4.40
2022-11-18T17:25:45.414Z,6.47
2022-11-18T17:28:13.266Z,5.50
2022-11-18T17:30:44.497Z,6.80
2022-11-18T17:33:16.323Z,5.87
2022-11-18T17:35:44.192Z,7.30
2022-11-18T17:38:12.021Z,9.70
2022-11-18T17:40:39.889Z,8.70
2022-11-18T17:43:07.712Z,6.67
2022-11-18T17:45:35.511Z,7.07
2022-11-18T17:48:03.378Z,7.47
2022-11-18T17:50:32.554Z,5.03
2022-11-18T17:53:00.425Z,6.30
2022-11-18T17:55:28.385Z,5.10
2022-11-18T17:57:56.224Z,5.33
2022-11-18T18:00:24.222Z,4.73
2022-11-18T18:02:52.044Z,5.50
2022-11-18T18:05:19.849Z,5.20
2022-11-18T18:07:50.929Z,6.20
2022-11-18T18:10:19.095Z,6.40
2022-11-18T18:13:04.638Z,7.40
2022-11-18T18:15:33.104Z,7.30
2022-11-18T18:18:01.182Z,5.33
2022-11-18T18:20:29.770Z,5.97
2022-11-18T18:22:58.926Z,7.50
2022-11-18T18:25:26.807Z,9.27
2022-11-18T18:27:54.608Z,7.80
2022-11-18T18:30:22.537Z,9.43
2022-11-18T18:32:52.551Z,11.77
2022-11-18T18:35:20.684Z,7.80
2022-11-18T18:37:48.494Z,7.47
2022-11-18T18:40:18.168Z,5.63
2022-11-18T18:42:46.011Z,4.47
2022-11-18T18:45:31.272Z,6.10
2022-11-18T18:48:03.326Z,7.80
2022-11-18T18:50:33.209Z,5.43
2022-11-18T18:53:01.180Z,5.93
2022-11-18T18:55:30.292Z,5.40
2022-11-18T18:57:58.206Z,5.57
2022-11-18T19:00:26.058Z,5.33
2022-11-18T19:02:53.869Z,6.03
2022-11-18T19:05:38.851Z,6.20
2022-11-18T19:08:09.987Z,6.90
2022-11-18T19:10:39.422Z,6.13
2022-11-18T19:13:06.608Z,7.57
2022-11-18T19:15:35.814Z,9.40
2022-11-18T19:18:03.833Z,9.30
2022-11-18T19:20:37.579Z,8.73
2022-11-18T19:23:10.303Z,6.40
2022-11-18T19:25:39.947Z,6.13
2022-11-18T19:28:08.186Z,5.53
2022-11-18T19:30:35.997Z,5.60
2022-11-18T19:33:05.421Z,5.73
2022-11-18T19:35:33.296Z,4.50
2022-11-18T19:38:01.192Z,6.67
2022-11-18T19:40:29.024Z,4.77
2022-11-18T19:42:58.221Z,6.30
2022-11-18T19:45:27.219Z,5.30
2022-11-18T19:47:55.055Z,6.30
2022-11-18T19:50:22.881Z,6.17
2022-11-18T19:52:50.705Z,6.00
2022-11-18T19:55:18.488Z,7.03
2022-11-18T19:57:46.461Z,6.50
2022-11-18T20:00:17.447Z,9.37
2022-11-18T20:02:45.257Z,8.27
2022-11-18T20:05:30.916Z,8.37
2022-11-18T20:07:58.978Z,10.03
2022-11-18T20:10:26.806Z,6.20
2022-11-18T20:12:56.146Z,6.47
2022-11-18T20:15:25.320Z,6.30
2022-11-18T20:17:53.223Z,6.60
2022-11-18T20:20:21.081Z,5.97
2022-11-18T20:22:48.975Z,5.83
2022-11-18T20:25:17.002Z,6.83
2022-11-18T20:27:44.913Z,6.57
2022-11-18T20:30:13.579Z,6.13
2022-11-18T20:32:43.001Z,5.70
2022-11-18T20:35:10.920Z,6.10
2022-11-18T20:37:38.781Z,6.57
2022-11-18T20:40:07.695Z,14.23
2022-11-18T20:42:52.978Z,16.20
2022-11-18T20:45:20.978Z,15.07
2022-11-18T20:47:50.145Z,13.37
2022-11-18T20:50:18.424Z,10.83
2022-11-18T20:52:46.246Z,8.03
2022-11-18T20:55:15.789Z,6.93
2022-11-18T20:57:43.711Z,7.20
2022-11-18T21:00:12.877Z,9.90
2022-11-18T21:02:40.684Z,13.13
2022-11-18T21:05:10.420Z,10.47
2022-11-18T21:07:38.402Z,9.33
2022-11-18T21:10:08.005Z,7.50
2022-11-18T21:12:35.852Z,5.47
2022-11-18T21:15:02.733Z,7.27
2022-11-18T21:17:30.659Z,6.50
2022-11-18T21:20:18.608Z,9.23
2022-11-18T21:22:46.870Z,8.97
2022-11-18T21:25:14.763Z,8.77
2022-11-18T21:27:42.579Z,9.83
2022-11-18T21:30:11.945Z,10.23
2022-11-18T21:32:39.886Z,7.17
2022-11-18T21:35:08.264Z,9.67
2022-11-18T21:37:36.235Z,8.83
2022-11-18T21:40:06.341Z,9.07
2022-11-18T21:42:34.189Z,10.00
2022-11-18T21:45:02.059Z,9.33
2022-11-18T21:47:30.144Z,8.40
2022-11-18T21:49:57.950Z,8.37
2022-11-18T21:52:25.840Z,7.27
2022-11-18T21:54:53.597Z,7.37
2022-11-18T21:57:22.798Z,8.23
2022-11-18T21:59:50.652Z,8.33
2022-11-18T22:02:18.479Z,11.80
2022-11-18T22:04:57.241Z,10.87
2022-11-18T22:07:26.258Z,11.10
2022-11-18T22:09:55.130Z,10.87
2022-11-18T22:12:24.457Z,9.57
2022-11-18T22:14:52.259Z,11.47
2022-11-18T22:17:20.388Z,10.83
2022-11-18T22:19:48.414Z,12.90
2022-11-18T22:22:16.460Z,11.33
2022-11-18T22:24:44.231Z,10.80
2022-11-18T22:27:12.145Z,9.00
2022-11-18T22:29:41.290Z,10.70
2022-11-18T22:32:09.167Z,8.60
2022-11-18T22:34:37.012Z,9.17
2022-11-18T22:37:05.142Z,10.43
2022-11-18T22:39:32.896Z,8.50
2022-11-18T22:42:18.596Z,8.13
2022-11-18T22:44:47.821Z,8.43
2022-11-18T22:47:15.730Z,7.27
2022-11-18T22:49:43.678Z,9.40
2022-11-18T22:52:11.512Z,8.73
2022-11-18T22:54:40.270Z,8.33
2022-11-18T22:57:08.777Z,7.93
2022-11-18T22:59:36.765Z,8.17
2022-11-18T23:02:06.591Z,8.80
2022-11-18T23:04:34.830Z,11.70
2022-11-18T23:07:02.771Z,9.60
2022-11-18T23:09:30.854Z,12.20
2022-11-18T23:12:16.171Z,12.63
2022-11-18T23:14:44.224Z,11.10
2022-11-18T23:17:13.388Z,9.50
2022-11-18T23:19:43.662Z,13.13
2022-11-18T23:22:11.999Z,16.83
2022-11-18T23:24:39.797Z,10.37
2022-11-18T23:27:07.901Z,10.00
2022-11-18T23:29:35.697Z,12.40
2022-11-18T23:32:04.353Z,11.10
2022-11-18T23:34:33.535Z,7.97
2022-11-18T23:37:01.397Z,11.50
2022-11-18T23:39:29.196Z,8.30
2022-11-18T23:41:57.036Z,8.07
2022-11-18T23:44:44.809Z,6.90
2022-11-18T23:47:12.774Z,7.33
2022-11-18T23:49:41.992Z,6.33
2022-11-18T23:52:10.019Z,5.97
2022-11-18T23:54:37.941Z,8.07
2022-11-18T23:57:05.888Z,6.87
2022-11-18T23:59:34.110Z,9.23
